Bitflower — SBJE — position and weather

sailwx.info

Track history (hours):
 
Tides and Currents Weather Stations Pressure Air Temp Water Temp Dewpoint Dewpoint Depression Visibility Wind Speed Wind Dir Waves Ship Positions

Bitflower

Last reported at 2017-Sep-25 08:56 UTC. Time now 2017-Sep-26 03:49 UTC.
Position N 47°12' W 001°42'.

Length 116 m; draft 4.8 m.

Type: Ship. MMSI: 266009000.

Date/timePositionNaut miles runAvg speedWind from/ knotsBaromVisibWave heightAir tempDewpointWater temp
2017-Sep-25 08:56N 47°12' W 001°42'3 0.9
2017-Sep-25 06:04N 47°12' W 001°38'0 0.0
2017-Sep-25 05:43N 47°12' W 001°38'0 0.0
2017-Sep-25 05:19N 47°12' W 001°38'0 0.0
2017-Sep-25 04:58N 47°12' W 001°38'0 0.0
2017-Sep-25 04:28N 47°12' W 001°38'0 0.0
2017-Sep-25 03:46N 47°12' W 001°38'0 0.0
2017-Sep-25 03:19N 47°12' W 001°38'0 0.0
2017-Sep-25 02:58N 47°12' W 001°38'0 0.0
2017-Sep-25 02:10N 47°12' W 001°38'0 0.0
2017-Sep-25 01:49N 47°12' W 001°38'0 0.0
2017-Sep-25 01:25N 47°12' W 001°38'0 0.0
2017-Sep-25 00:52N 47°12' W 001°38'0 0.0
2017-Sep-25 00:28N 47°12' W 001°38'0 0.0
2017-Sep-24 23:58N 47°12' W 001°38'0 0.0
2017-Sep-24 23:28N 47°12' W 001°38'0 0.0
2017-Sep-24 22:58N 47°12' W 001°38'0 0.0
2017-Sep-24 22:28N 47°12' W 001°38'0 0.0
2017-Sep-24 21:58N 47°12' W 001°38'0 0.0
2017-Sep-24 21:28N 47°12' W 001°38'0 0.0
2017-Sep-24 20:58N 47°12' W 001°38'0 0.0
2017-Sep-24 20:28N 47°12' W 001°38'0 0.0
2017-Sep-24 19:58N 47°12' W 001°38'0 0.0
2017-Sep-24 19:29N 47°12' W 001°38'0 0.1
2017-Sep-24 19:00N 47°12' W 001°38'1 2.6
2017-Sep-24 18:30N 47°12' W 001°40'4 8.8
2017-Sep-24 18:00N 47°12' W 001°46'510.9
2017-Sep-24 17:30N 47°16' W 001°52'612.6
2017-Sep-24 17:00N 47°18' W 002°01'611.4
2017-Sep-24 16:30N 47°17' W 002°10'713.4
2017-Sep-24 16:00N 47°13' W 002°17'612.0
2017-Sep-24 15:31N 47°08' W 002°22'3 6.0
2017-Sep-24 14:58N 47°07' W 002°26'0 0.1
2017-Sep-24 12:23N 47°07' W 002°27'0 0.1
2017-Sep-24 11:41N 47°07' W 002°27'0 0.0
2017-Sep-24 11:30N 47°07' W 002°27'0 0.0
2017-Sep-24 10:54N 47°07' W 002°27'0 0.0
2017-Sep-24 10:30N 47°07' W 002°27'0 0.0
2017-Sep-24 09:38N 47°06' W 002°27'0 0.0
2017-Sep-24 09:30N 47°06' W 002°27'0 0.1
2017-Sep-24 08:54N 47°07' W 002°27'3 7.4
2017-Sep-24 08:30N 47°04' W 002°28'612.8
2017-Sep-24 08:01N 47°01' W 002°36'612.1
2017-Sep-24 07:30N 47°01' W 002°45'713.4
2017-Sep-24 07:00N 47°04' W 002°54'713.6
2017-Sep-24 06:30N 47°07' W 003°03'713.4
2017-Sep-24 06:00N 47°10' W 003°12'713.5
2017-Sep-24 05:30N 47°12' W 003°21'713.6
2017-Sep-24 05:00N 47°15' W 003°30'713.9
2017-Sep-24 04:30N 47°18' W 003°40'714.0
2017-Sep-24 04:00N 47°21' W 003°49'713.7
2017-Sep-24 03:30N 47°24' W 003°58'713.6
2017-Sep-24 03:00N 47°26' W 004°08'913.6
2017-Sep-24 02:19N 47°30' W 004°20'413.5
2017-Sep-24 02:00N 47°32' W 004°26'713.2
2017-Sep-24 01:30N 47°35' W 004°35'713.1
2017-Sep-24 00:58N 47°38' W 004°44'613.3
2017-Sep-24 00:30N 47°40' W 004°53'713.0
2017-Sep-23 23:59N 47°43' W 005°02'714.1
2017-Sep-23 23:27N 47°48' W 005°10'614.1
2017-Sep-23 23:00N 47°53' W 005°16'1514.3
2017-Sep-23 21:56N 48°06' W 005°29'914.4
2017-Sep-23 21:20N 48°13' W 005°34'43810.1
2017-Sep-22 01:58N 51°53' E 004°16'0 0.0
2017-Sep-22 01:28N 51°53' E 004°16'0 0.0
2017-Sep-22 00:58N 51°53' E 004°16'0 0.0
2017-Sep-22 00:28N 51°53' E 004°16'0 0.0
2017-Sep-21 23:58N 51°53' E 004°16'0 0.0
2017-Sep-21 23:28N 51°53' E 004°16'0 0.0
2017-Sep-21 22:58N 51°53' E 004°16'0 0.0
2017-Sep-21 22:28N 51°53' E 004°16'0 0.0
2017-Sep-21 21:58N 51°53' E 004°16'0 0.0
2017-Sep-21 21:28N 51°53' E 004°16'0 0.0
2017-Sep-21 20:58N 51°53' E 004°16'0 0.0
2017-Sep-21 20:28N 51°53' E 004°16'0 0.0
2017-Sep-21 19:58N 51°53' E 004°16'0 0.0
2017-Sep-21 19:28N 51°53' E 004°16'0 0.0
2017-Sep-21 18:58N 51°53' E 004°16'0 0.0
2017-Sep-21 18:28N 51°53' E 004°16'0 0.0
2017-Sep-21 17:58N 51°53' E 004°16'0 0.0
2017-Sep-21 17:28N 51°53' E 004°16'0 0.6
2017-Sep-21 17:00N 51°53' E 004°16'0 0.7
2017-Sep-21 16:30N 51°53' E 004°17'1 1.9
2017-Sep-21 16:00N 51°53' E 004°18'4 8.3
2017-Sep-21 15:30N 51°56' E 004°13'612.4
2017-Sep-21 15:00N 51°59' E 004°04'713.1
2017-Sep-21 14:30N 52°01' E 003°54'5 8.8
2017-Sep-21 13:59N 52°01' E 003°47'4 7.6
2017-Sep-21 13:27N 52°05' E 003°47'510.3
2017-Sep-21 12:58N 52°10' E 003°46'610.6
2017-Sep-21 12:27N 52°16' E 003°47'911.4
2017-Sep-21 11:41N 52°24' E 003°49'1011.8
2017-Sep-21 10:50N 52°34' E 003°52'2512.0
2017-Sep-21 08:45N 52°58' E 004°02'412.2
2017-Sep-21 08:24N 53°01' E 004°07'14211.9
2017-Sep-20 20:32N 54°01' E 007°43'111.9
2017-Sep-20 20:25N 54°01' E 007°45'511.8
2017-Sep-20 19:59N 54°01' E 007°54'1212.1
2017-Sep-20 18:57N 54°00' E 008°15'713.6
2017-Sep-20 18:27N 53°59' E 008°27'715.0
2017-Sep-20 18:00N 53°57' E 008°38'816.4
2017-Sep-20 17:31N 53°51' E 008°46'815.9
2017-Sep-20 17:00N 53°51' E 008°60'714.0
2017-Sep-20 16:31N 53°53' E 009°11'714.5
2017-Sep-20 16:00N 53°49' E 009°22'714.0
2017-Sep-20 15:30N 53°43' E 009°28'612.0
2017-Sep-20 15:00N 53°38' E 009°32'1111.4
2017-Sep-20 14:00N 53°33' E 009°50'4 8.2
2017-Sep-20 13:30N 53°32' E 009°56'2 3.2
2017-Sep-20 13:00N 53°31' E 009°57'0 0.0
2017-Sep-20 12:30N 53°31' E 009°57'0 0.0
2017-Sep-20 12:00N 53°31' E 009°57'0 0.0
2017-Sep-20 11:30N 53°31' E 009°57'0 0.0
2017-Sep-20 11:00N 53°31' E 009°57'0 0.0
2017-Sep-20 10:30N 53°31' E 009°57'0 0.0
2017-Sep-20 10:00N 53°31' E 009°57'0 0.0
2017-Sep-20 09:30N 53°31' E 009°57'0 0.0
2017-Sep-20 09:00N 53°31' E 009°57'0 0.0
2017-Sep-20 08:27N 53°31' E 009°57'0 0.0
2017-Sep-20 08:00N 53°31' E 009°57'0 0.0
2017-Sep-20 07:30N 53°31' E 009°57'0 0.0
2017-Sep-20 07:00N 53°31' E 009°57'0 0.0
2017-Sep-20 06:28N 53°31' E 009°57'0 0.0
2017-Sep-20 06:01N 53°31' E 009°57'0 0.0
2017-Sep-20 05:28N 53°31' E 009°57'0 0.0
2017-Sep-20 05:01N 53°31' E 009°57'0 0.0
2017-Sep-20 04:28N 53°31' E 009°57'0 0.0
2017-Sep-20 03:58N 53°31' E 009°57'0 0.0
2017-Sep-20 03:25N 53°31' E 009°57'0 0.0
2017-Sep-20 03:01N 53°31' E 009°57'0 0.0
2017-Sep-20 02:28N 53°31' E 009°57'0 0.0
2017-Sep-20 01:58N 53°31' E 009°57'0 0.0
2017-Sep-20 01:28N 53°31' E 009°57'0 0.0
2017-Sep-20 00:58N 53°31' E 009°57'0 0.0
2017-Sep-20 00:28N 53°31' E 009°57'0 0.0
2017-Sep-19 23:58N 53°31' E 009°57'0 0.0
2017-Sep-19 23:28N 53°31' E 009°57'0 0.0
2017-Sep-19 22:58N 53°31' E 009°57'0 0.0
2017-Sep-19 22:30N 53°31' E 009°57'0 0.7
2017-Sep-19 22:01N 53°31' E 009°57'3 5.4
2017-Sep-19 21:31N 53°32' E 009°53'4 7.4
2017-Sep-19 21:01N 53°33' E 009°47'611.8
2017-Sep-19 20:30N 53°35' E 009°38'611.7
2017-Sep-19 20:00N 53°39' E 009°31'611.3
2017-Sep-19 19:30N 53°44' E 009°26'611.5
2017-Sep-19 19:00N 53°49' E 009°22'611.1
2017-Sep-19 18:31N 53°52' E 009°14'510.1
2017-Sep-19 18:00N 53°52' E 009°06'510.8
2017-Sep-19 17:31N 53°51' E 008°57'510.3
2017-Sep-19 17:00N 53°50' E 008°48'5 9.6
2017-Sep-19 16:30N 53°53' E 008°42'5 9.9
2017-Sep-19 16:00N 53°57' E 008°37'611.5
2017-Sep-19 15:30N 53°59' E 008°27'612.5
2017-Sep-19 15:00N 53°60' E 008°17'612.6
2017-Sep-19 14:30N 53°59' E 008°06'9713.8
2017-Sep-19 07:26N 53°34' E 005°27'614.1
2017-Sep-19 07:00N 53°32' E 005°18'5 9.1
2017-Sep-19 06:28N 53°30' E 005°10'612.5
2017-Sep-19 06:00N 53°28' E 005°01'816.0
2017-Sep-19 05:29N 53°25' E 004°48'7215.0
2017-Sep-19 00:41N 52°27' E 003°37'314.7
2017-Sep-19 00:30N 52°25' E 003°34'714.5
2017-Sep-19 00:00N 52°20' E 003°25'714.3
2017-Sep-18 23:30N 52°15' E 003°17'713.9
2017-Sep-18 22:59N 52°10' E 003°09'3712.6
2017-Sep-18 20:05N 51°42' E 002°31'111.6
2017-Sep-18 19:58N 51°41' E 002°29'911.6
2017-Sep-18 19:14N 51°34' E 002°20'311.5
2017-Sep-18 18:59N 51°32' E 002°17'611.6
2017-Sep-18 18:30N 51°28' E 002°12'611.3
2017-Sep-18 18:00N 51°23' E 002°08'611.9
2017-Sep-18 17:30N 51°17' E 002°06'611.1
2017-Sep-18 17:00N 51°13' E 002°00'612.2
2017-Sep-18 16:30N 51°09' E 001°52'612.2
2017-Sep-18 16:00N 51°05' E 001°45'612.4
2017-Sep-18 15:30N 51°01' E 001°38'712.9
2017-Sep-18 15:00N 50°57' E 001°30'7212.7
2017-Sep-18 09:20N 50°19' W 000°07'4715.9
2017-Sep-18 06:23N 50°07' W 001°18'617.1
2017-Sep-18 06:00N 50°05' W 001°28'817.0
2017-Sep-18 05:30N 50°03' W 001°40'916.8
2017-Sep-18 05:00N 50°01' W 001°53'5514.6
2017-Sep-18 01:14N 49°50' W 003°17'313.6
2017-Sep-18 01:00N 49°50' W 003°22'713.3
2017-Sep-18 00:30N 49°50' W 003°32'713.0
2017-Sep-18 00:00N 49°50' W 003°42'813.0
2017-Sep-17 23:26N 49°50' W 003°54'512.9
2017-Sep-17 23:00N 49°51' W 004°02'14710.0
2017-Sep-17 08:21N 51°60' W 005°53'813.5
2017-Sep-17 07:45N 52°08' W 005°53'313.1
2017-Sep-17 07:30N 52°11' W 005°53'612.8
2017-Sep-17 07:00N 52°18' W 005°52'612.4
2017-Sep-17 06:30N 52°24' W 005°52'612.2
2017-Sep-17 06:00N 52°30' W 005°52'4712.2
2017-Sep-17 02:09N 53°17' W 006°01'213.2
2017-Sep-17 02:00N 53°18' W 006°03'510.7
2017-Sep-17 01:30N 53°21' W 006°11'1 0.1
2017-Sep-16 16:26N 53°21' W 006°12'0 0.0
2017-Sep-16 15:56N 53°21' W 006°12'0 0.0
2017-Sep-16 15:29N 53°21' W 006°12'0 0.0
2017-Sep-16 14:23N 53°21' W 006°12'0 0.0
2017-Sep-16 13:56N 53°21' W 006°12'0 0.0
2017-Sep-16 12:41N 53°21' W 006°12'0 0.0
2017-Sep-16 12:14N 53°21' W 006°12'0 0.0
2017-Sep-16 10:02N 53°21' W 006°12'0 0.0
2017-Sep-16 09:50N 53°21' W 006°12'0 0.0
2017-Sep-16 09:26N 53°21' W 006°12'0 0.0
2017-Sep-16 08:56N 53°21' W 006°12'0 0.0
2017-Sep-16 08:26N 53°21' W 006°12'0 0.0
2017-Sep-16 07:59N 53°21' W 006°12'2 4.8
2017-Sep-16 07:30N 53°21' W 006°08'4 4.7
2017-Sep-16 06:40N 53°21' W 006°02'6 6.3
2017-Sep-16 05:44N 53°22' W 005°53'84 9.5
2017-Sep-15 20:54N 53°34' W 003°33'513.2
2017-Sep-15 20:30N 53°33' W 003°24'510.4
2017-Sep-15 20:00N 53°31' W 003°15'5 9.7
2017-Sep-15 19:30N 53°31' W 003°07'612.0
2017-Sep-15 19:00N 53°27' W 003°01'611.7
2017-Sep-15 18:30N 53°21' W 002°58'2 2.9
2017-Sep-15 17:55N 53°19' W 002°57'0 0.4
2017-Sep-15 17:28N 53°19' W 002°57'0 0.0
2017-Sep-15 16:58N 53°19' W 002°57'0 0.0
2017-Sep-15 16:28N 53°19' W 002°57'0 0.0
2017-Sep-15 15:58N 53°19' W 002°57'0 0.0
2017-Sep-15 15:22N 53°19' W 002°57'0 0.0
2017-Sep-15 14:52N 53°19' W 002°57'0 0.0
2017-Sep-15 14:25N 53°19' W 002°57'0 0.0
2017-Sep-15 13:58N 53°19' W 002°57'0 0.0
2017-Sep-15 13:28N 53°19' W 002°57'0 0.0
2017-Sep-15 12:58N 53°19' W 002°57'0 0.0
2017-Sep-15 12:28N 53°19' W 002°57'0 0.0
2017-Sep-15 11:52N 53°19' W 002°57'0 0.0
2017-Sep-15 11:19N 53°19' W 002°57'0 0.0
2017-Sep-15 10:49N 53°19' W 002°57'0 0.0
2017-Sep-15 10:25N 53°19' W 002°57'0 0.0
2017-Sep-15 09:58N 53°19' W 002°57'0 0.0
2017-Sep-15 09:25N 53°19' W 002°57'0 0.0
2017-Sep-15 08:58N 53°19' W 002°57'  
Track history (hours):
 
Tides and Currents Weather Stations Pressure Air Temp Water Temp Dewpoint Dewpoint Depression Visibility Wind Speed Wind Dir Waves Ship Positions

Bitflower

Last reported at 2017-Sep-25 08:56 UTC. Time now 2017-Sep-26 03:49 UTC.
Position N 47°12' W 001°42'.

Length 116 m; draft 4.8 m.

Type: Ship. MMSI: 266009000.

Date/timePositionNaut miles runAvg speedWind from/ knotsBaromVisibWave heightAir tempDewpointWater temp
2017-Sep-25 08:56N 47°12' W 001°42'3 0.9
2017-Sep-25 06:04N 47°12' W 001°38'0 0.0
2017-Sep-25 05:43N 47°12' W 001°38'0 0.0
2017-Sep-25 05:19N 47°12' W 001°38'0 0.0
2017-Sep-25 04:58N 47°12' W 001°38'0 0.0
2017-Sep-25 04:28N 47°12' W 001°38'0 0.0
2017-Sep-25 03:46N 47°12' W 001°38'0 0.0
2017-Sep-25 03:19N 47°12' W 001°38'0 0.0
2017-Sep-25 02:58N 47°12' W 001°38'0 0.0
2017-Sep-25 02:10N 47°12' W 001°38'0 0.0
2017-Sep-25 01:49N 47°12' W 001°38'0 0.0
2017-Sep-25 01:25N 47°12' W 001°38'0 0.0
2017-Sep-25 00:52N 47°12' W 001°38'0 0.0
2017-Sep-25 00:28N 47°12' W 001°38'0 0.0
2017-Sep-24 23:58N 47°12' W 001°38'0 0.0
2017-Sep-24 23:28N 47°12' W 001°38'0 0.0
2017-Sep-24 22:58N 47°12' W 001°38'0 0.0
2017-Sep-24 22:28N 47°12' W 001°38'0 0.0
2017-Sep-24 21:58N 47°12' W 001°38'0 0.0
2017-Sep-24 21:28N 47°12' W 001°38'0 0.0
2017-Sep-24 20:58N 47°12' W 001°38'0 0.0
2017-Sep-24 20:28N 47°12' W 001°38'0 0.0
2017-Sep-24 19:58N 47°12' W 001°38'0 0.0
2017-Sep-24 19:29N 47°12' W 001°38'0 0.1
2017-Sep-24 19:00N 47°12' W 001°38'1 2.6
2017-Sep-24 18:30N 47°12' W 001°40'4 8.8
2017-Sep-24 18:00N 47°12' W 001°46'510.9
2017-Sep-24 17:30N 47°16' W 001°52'612.6
2017-Sep-24 17:00N 47°18' W 002°01'611.4
2017-Sep-24 16:30N 47°17' W 002°10'713.4
2017-Sep-24 16:00N 47°13' W 002°17'612.0
2017-Sep-24 15:31N 47°08' W 002°22'3 6.0
2017-Sep-24 14:58N 47°07' W 002°26'0 0.1
2017-Sep-24 12:23N 47°07' W 002°27'0 0.1
2017-Sep-24 11:41N 47°07' W 002°27'0 0.0
2017-Sep-24 11:30N 47°07' W 002°27'0 0.0
2017-Sep-24 10:54N 47°07' W 002°27'0 0.0
2017-Sep-24 10:30N 47°07' W 002°27'0 0.0
2017-Sep-24 09:38N 47°06' W 002°27'0 0.0
2017-Sep-24 09:30N 47°06' W 002°27'0 0.1
2017-Sep-24 08:54N 47°07' W 002°27'3 7.4
2017-Sep-24 08:30N 47°04' W 002°28'612.8
2017-Sep-24 08:01N 47°01' W 002°36'612.1
2017-Sep-24 07:30N 47°01' W 002°45'713.4
2017-Sep-24 07:00N 47°04' W 002°54'713.6
2017-Sep-24 06:30N 47°07' W 003°03'713.4
2017-Sep-24 06:00N 47°10' W 003°12'713.5
2017-Sep-24 05:30N 47°12' W 003°21'713.6
2017-Sep-24 05:00N 47°15' W 003°30'713.9
2017-Sep-24 04:30N 47°18' W 003°40'714.0
2017-Sep-24 04:00N 47°21' W 003°49'713.7
2017-Sep-24 03:30N 47°24' W 003°58'713.6
2017-Sep-24 03:00N 47°26' W 004°08'913.6
2017-Sep-24 02:19N 47°30' W 004°20'413.5
2017-Sep-24 02:00N 47°32' W 004°26'713.2
2017-Sep-24 01:30N 47°35' W 004°35'713.1
2017-Sep-24 00:58N 47°38' W 004°44'613.3
2017-Sep-24 00:30N 47°40' W 004°53'713.0
2017-Sep-23 23:59N 47°43' W 005°02'714.1
2017-Sep-23 23:27N 47°48' W 005°10'614.1
2017-Sep-23 23:00N 47°53' W 005°16'1514.3
2017-Sep-23 21:56N 48°06' W 005°29'914.4
2017-Sep-23 21:20N 48°13' W 005°34'43810.1
2017-Sep-22 01:58N 51°53' E 004°16'0 0.0
2017-Sep-22 01:28N 51°53' E 004°16'0 0.0
2017-Sep-22 00:58N 51°53' E 004°16'0 0.0
2017-Sep-22 00:28N 51°53' E 004°16'0 0.0
2017-Sep-21 23:58N 51°53' E 004°16'0 0.0
2017-Sep-21 23:28N 51°53' E 004°16'0 0.0
2017-Sep-21 22:58N 51°53' E 004°16'0 0.0
2017-Sep-21 22:28N 51°53' E 004°16'0 0.0
2017-Sep-21 21:58N 51°53' E 004°16'0 0.0
2017-Sep-21 21:28N 51°53' E 004°16'0 0.0
2017-Sep-21 20:58N 51°53' E 004°16'0 0.0
2017-Sep-21 20:28N 51°53' E 004°16'0 0.0
2017-Sep-21 19:58N 51°53' E 004°16'0 0.0
2017-Sep-21 19:28N 51°53' E 004°16'0 0.0
2017-Sep-21 18:58N 51°53' E 004°16'0 0.0
2017-Sep-21 18:28N 51°53' E 004°16'0 0.0
2017-Sep-21 17:58N 51°53' E 004°16'0 0.0
2017-Sep-21 17:28N 51°53' E 004°16'0 0.6
2017-Sep-21 17:00N 51°53' E 004°16'0 0.7
2017-Sep-21 16:30N 51°53' E 004°17'1 1.9
2017-Sep-21 16:00N 51°53' E 004°18'4 8.3
2017-Sep-21 15:30N 51°56' E 004°13'612.4
2017-Sep-21 15:00N 51°59' E 004°04'713.1
2017-Sep-21 14:30N 52°01' E 003°54'5 8.8
2017-Sep-21 13:59N 52°01' E 003°47'4 7.6
2017-Sep-21 13:27N 52°05' E 003°47'510.3
2017-Sep-21 12:58N 52°10' E 003°46'610.6
2017-Sep-21 12:27N 52°16' E 003°47'911.4
2017-Sep-21 11:41N 52°24' E 003°49'1011.8
2017-Sep-21 10:50N 52°34' E 003°52'2512.0
2017-Sep-21 08:45N 52°58' E 004°02'412.2
2017-Sep-21 08:24N 53°01' E 004°07'14211.9
2017-Sep-20 20:32N 54°01' E 007°43'111.9
2017-Sep-20 20:25N 54°01' E 007°45'511.8
2017-Sep-20 19:59N 54°01' E 007°54'1212.1
2017-Sep-20 18:57N 54°00' E 008°15'713.6
2017-Sep-20 18:27N 53°59' E 008°27'715.0
2017-Sep-20 18:00N 53°57' E 008°38'816.4
2017-Sep-20 17:31N 53°51' E 008°46'815.9
2017-Sep-20 17:00N 53°51' E 008°60'714.0
2017-Sep-20 16:31N 53°53' E 009°11'714.5
2017-Sep-20 16:00N 53°49' E 009°22'714.0
2017-Sep-20 15:30N 53°43' E 009°28'612.0
2017-Sep-20 15:00N 53°38' E 009°32'1111.4
2017-Sep-20 14:00N 53°33' E 009°50'4 8.2
2017-Sep-20 13:30N 53°32' E 009°56'2 3.2
2017-Sep-20 13:00N 53°31' E 009°57'0 0.0
2017-Sep-20 12:30N 53°31' E 009°57'0 0.0
2017-Sep-20 12:00N 53°31' E 009°57'0 0.0
2017-Sep-20 11:30N 53°31' E 009°57'0 0.0
2017-Sep-20 11:00N 53°31' E 009°57'0 0.0
2017-Sep-20 10:30N 53°31' E 009°57'0 0.0
2017-Sep-20 10:00N 53°31' E 009°57'0 0.0
2017-Sep-20 09:30N 53°31' E 009°57'0 0.0
2017-Sep-20 09:00N 53°31' E 009°57'0 0.0
2017-Sep-20 08:27N 53°31' E 009°57'0 0.0
2017-Sep-20 08:00N 53°31' E 009°57'0 0.0
2017-Sep-20 07:30N 53°31' E 009°57'0 0.0
2017-Sep-20 07:00N 53°31' E 009°57'0 0.0
2017-Sep-20 06:28N 53°31' E 009°57'0 0.0
2017-Sep-20 06:01N 53°31' E 009°57'0 0.0
2017-Sep-20 05:28N 53°31' E 009°57'0 0.0
2017-Sep-20 05:01N 53°31' E 009°57'0 0.0
2017-Sep-20 04:28N 53°31' E 009°57'0 0.0
2017-Sep-20 03:58N 53°31' E 009°57'0 0.0
2017-Sep-20 03:25N 53°31' E 009°57'0 0.0
2017-Sep-20 03:01N 53°31' E 009°57'0 0.0
2017-Sep-20 02:28N 53°31' E 009°57'0 0.0
2017-Sep-20 01:58N 53°31' E 009°57'0 0.0
2017-Sep-20 01:28N 53°31' E 009°57'0 0.0
2017-Sep-20 00:58N 53°31' E 009°57'0 0.0
2017-Sep-20 00:28N 53°31' E 009°57'0 0.0
2017-Sep-19 23:58N 53°31' E 009°57'0 0.0
2017-Sep-19 23:28N 53°31' E 009°57'0 0.0
2017-Sep-19 22:58N 53°31' E 009°57'0 0.0
2017-Sep-19 22:30N 53°31' E 009°57'0 0.7
2017-Sep-19 22:01N 53°31' E 009°57'3 5.4
2017-Sep-19 21:31N 53°32' E 009°53'4 7.4
2017-Sep-19 21:01N 53°33' E 009°47'611.8
2017-Sep-19 20:30N 53°35' E 009°38'611.7
2017-Sep-19 20:00N 53°39' E 009°31'611.3
2017-Sep-19 19:30N 53°44' E 009°26'611.5
2017-Sep-19 19:00N 53°49' E 009°22'611.1
2017-Sep-19 18:31N 53°52' E 009°14'510.1
2017-Sep-19 18:00N 53°52' E 009°06'510.8
2017-Sep-19 17:31N 53°51' E 008°57'510.3
2017-Sep-19 17:00N 53°50' E 008°48'5 9.6
2017-Sep-19 16:30N 53°53' E 008°42'5 9.9
2017-Sep-19 16:00N 53°57' E 008°37'611.5
2017-Sep-19 15:30N 53°59' E 008°27'612.5
2017-Sep-19 15:00N 53°60' E 008°17'612.6
2017-Sep-19 14:30N 53°59' E 008°06'9713.8
2017-Sep-19 07:26N 53°34' E 005°27'614.1
2017-Sep-19 07:00N 53°32' E 005°18'5 9.1
2017-Sep-19 06:28N 53°30' E 005°10'612.5
2017-Sep-19 06:00N 53°28' E 005°01'816.0
2017-Sep-19 05:29N 53°25' E 004°48'7215.0
2017-Sep-19 00:41N 52°27' E 003°37'314.7
2017-Sep-19 00:30N 52°25' E 003°34'714.5
2017-Sep-19 00:00N 52°20' E 003°25'714.3
2017-Sep-18 23:30N 52°15' E 003°17'713.9
2017-Sep-18 22:59N 52°10' E 003°09'3712.6
2017-Sep-18 20:05N 51°42' E 002°31'111.6
2017-Sep-18 19:58N 51°41' E 002°29'911.6
2017-Sep-18 19:14N 51°34' E 002°20'311.5
2017-Sep-18 18:59N 51°32' E 002°17'611.6
2017-Sep-18 18:30N 51°28' E 002°12'611.3
2017-Sep-18 18:00N 51°23' E 002°08'611.9
2017-Sep-18 17:30N 51°17' E 002°06'611.1
2017-Sep-18 17:00N 51°13' E 002°00'612.2
2017-Sep-18 16:30N 51°09' E 001°52'612.2
2017-Sep-18 16:00N 51°05' E 001°45'612.4
2017-Sep-18 15:30N 51°01' E 001°38'712.9
2017-Sep-18 15:00N 50°57' E 001°30'7212.7
2017-Sep-18 09:20N 50°19' W 000°07'4715.9
2017-Sep-18 06:23N 50°07' W 001°18'617.1
2017-Sep-18 06:00N 50°05' W 001°28'817.0
2017-Sep-18 05:30N 50°03' W 001°40'916.8
2017-Sep-18 05:00N 50°01' W 001°53'5514.6
2017-Sep-18 01:14N 49°50' W 003°17'313.6
2017-Sep-18 01:00N 49°50' W 003°22'713.3
2017-Sep-18 00:30N 49°50' W 003°32'713.0
2017-Sep-18 00:00N 49°50' W 003°42'813.0
2017-Sep-17 23:26N 49°50' W 003°54'512.9
2017-Sep-17 23:00N 49°51' W 004°02'14710.0
2017-Sep-17 08:21N 51°60' W 005°53'813.5
2017-Sep-17 07:45N 52°08' W 005°53'313.1
2017-Sep-17 07:30N 52°11' W 005°53'612.8
2017-Sep-17 07:00N 52°18' W 005°52'612.4
2017-Sep-17 06:30N 52°24' W 005°52'612.2
2017-Sep-17 06:00N 52°30' W 005°52'4712.2
2017-Sep-17 02:09N 53°17' W 006°01'213.2
2017-Sep-17 02:00N 53°18' W 006°03'510.7
2017-Sep-17 01:30N 53°21' W 006°11'1 0.1
2017-Sep-16 16:26N 53°21' W 006°12'0 0.0
2017-Sep-16 15:56N 53°21' W 006°12'0 0.0
2017-Sep-16 15:29N 53°21' W 006°12'0 0.0
2017-Sep-16 14:23N 53°21' W 006°12'0 0.0
2017-Sep-16 13:56N 53°21' W 006°12'0 0.0
2017-Sep-16 12:41N 53°21' W 006°12'0 0.0
2017-Sep-16 12:14N 53°21' W 006°12'0 0.0
2017-Sep-16 10:02N 53°21' W 006°12'0 0.0
2017-Sep-16 09:50N 53°21' W 006°12'0 0.0
2017-Sep-16 09:26N 53°21' W 006°12'0 0.0
2017-Sep-16 08:56N 53°21' W 006°12'0 0.0
2017-Sep-16 08:26N 53°21' W 006°12'0 0.0
2017-Sep-16 07:59N 53°21' W 006°12'2 4.8
2017-Sep-16 07:30N 53°21' W 006°08'4 4.7
2017-Sep-16 06:40N 53°21' W 006°02'6 6.3
2017-Sep-16 05:44N 53°22' W 005°53'84 9.5
2017-Sep-15 20:54N 53°34' W 003°33'513.2
2017-Sep-15 20:30N 53°33' W 003°24'510.4
2017-Sep-15 20:00N 53°31' W 003°15'5 9.7
2017-Sep-15 19:30N 53°31' W 003°07'612.0
2017-Sep-15 19:00N 53°27' W 003°01'611.7
2017-Sep-15 18:30N 53°21' W 002°58'2 2.9
2017-Sep-15 17:55N 53°19' W 002°57'0 0.4
2017-Sep-15 17:28N 53°19' W 002°57'0 0.0
2017-Sep-15 16:58N 53°19' W 002°57'0 0.0
2017-Sep-15 16:28N 53°19' W 002°57'0 0.0
2017-Sep-15 15:58N 53°19' W 002°57'0 0.0
2017-Sep-15 15:22N 53°19' W 002°57'0 0.0
2017-Sep-15 14:52N 53°19' W 002°57'0 0.0
2017-Sep-15 14:25N 53°19' W 002°57'0 0.0
2017-Sep-15 13:58N 53°19' W 002°57'0 0.0
2017-Sep-15 13:28N 53°19' W 002°57'0 0.0
2017-Sep-15 12:58N 53°19' W 002°57'0 0.0
2017-Sep-15 12:28N 53°19' W 002°57'0 0.0
2017-Sep-15 11:52N 53°19' W 002°57'0 0.0
2017-Sep-15 11:19N 53°19' W 002°57'0 0.0
2017-Sep-15 10:49N 53°19' W 002°57'0 0.0
2017-Sep-15 10:25N 53°19' W 002°57'0 0.0
2017-Sep-15 09:58N 53°19' W 002°57'0 0.0
2017-Sep-15 09:25N 53°19' W 002°57'0 0.0
2017-Sep-15 08:58N 53°19' W 002°57'  

Dump ship's entire track history